Time;durP1;ratioP1;P1;durP2;ratioP2;P2;SDS_P1;SDS_P2;PMS_P1;PMS_P2;Temp;Humidity;BMP_temperature;BMP_pressure;BME280_temperature;BME280_humidity;BME280_pressure;Samples;Min_cycle;Max_cycle;Signal;HPM_P1;HPM_P2
2022/09/04 00:00:13;;;;;;;5.17;2.35;;;;;;;16.75;89.20;99451.27;1622814;87;21079;-79
2022/09/04 00:03:09;;;;;;;4.65;2.50;;;;;;;16.74;89.49;99458.30;1622763;87;21057;-80
2022/09/04 00:05:41;;;;;;;7.75;2.35;;;;;;;16.74;89.56;99455.67;1622708;87;21091;-79
2022/09/04 00:08:34;;;;;;;4.30;2.30;;;;;;;16.74;89.76;99460.08;1626591;87;21559;-79
2022/09/04 00:11:11;;;;;;;7.30;2.50;;;;;;;16.74;89.38;99462.70;1621399;87;21116;-80
2022/09/04 00:13:46;;;;;;;4.83;2.77;;;;;;;16.71;89.84;99467.61;1623554;87;20996;-80
2022/09/04 00:16:21;;;;;;;7.45;2.37;;;;;;;16.67;89.36;99466.04;1623178;88;21063;-80
2022/09/04 00:19:24;;;;;;;7.83;2.55;;;;;;;16.63;89.25;99461.84;1625661;87;20976;-79
2022/09/04 00:21:58;;;;;;;3.45;2.20;;;;;;;16.56;89.09;99465.21;1625308;86;21043;-79
2022/09/04 00:24:36;;;;;;;5.95;2.25;;;;;;;16.51;89.08;99463.23;1623819;87;21593;-79
2022/09/04 00:27:11;;;;;;;5.95;2.30;;;;;;;16.47;89.37;99466.48;1622877;87;21067;-79
2022/09/04 00:29:47;;;;;;;5.90;2.25;;;;;;;16.43;89.28;99476.72;1622833;88;21056;-81
2022/09/04 00:32:28;;;;;;;5.10;1.98;;;;;;;16.38;89.15;99470.80;1622614;87;21015;-81
2022/09/04 00:35:36;;;;;;;3.08;1.90;;;;;;;16.34;89.40;99483.66;1590735;89;21057;-79
2022/09/04 00:38:26;;;;;;;4.08;2.15;;;;;;;16.30;89.39;99483.39;1580481;89;21078;-80
2022/09/04 00:41:14;;;;;;;4.70;2.83;;;;;;;16.27;89.88;99473.02;1572246;89;21086;-79
2022/09/04 00:44:03;;;;;;;6.17;2.30;;;;;;;16.29;90.23;99479.05;1602959;89;21109;-79
2022/09/04 00:46:52;;;;;;;3.40;2.12;;;;;;;16.29;90.18;99473.37;1613739;88;21166;-79
2022/09/04 00:49:46;;;;;;;3.42;2.00;;;;;;;16.31;90.20;99475.91;1622473;87;21043;-80
2022/09/04 00:53:01;;;;;;;6.95;2.40;;;;;;;16.32;90.27;99486.80;1654357;87;21065;-80
2022/09/04 00:55:42;;;;;;;5.47;2.35;;;;;;;16.36;90.46;99486.23;1639263;85;21044;-81
2022/09/04 00:58:42;;;;;;;3.30;2.25;;;;;;;16.37;90.26;99483.98;1655065;87;21049;-80
2022/09/04 01:01:13;;;;;;;5.58;2.30;;;;;;;16.39;90.26;99491.32;1653270;85;21529;-79
2022/09/04 01:04:08;;;;;;;4.37;2.20;;;;;;;16.36;89.77;99489.69;1655270;87;21104;-80
2022/09/04 01:07:03;;;;;;;7.78;2.50;;;;;;;16.34;89.59;99493.31;1655641;85;21014;-79
2022/09/04 01:09:56;;;;;;;4.80;2.08;;;;;;;16.33;89.87;99492.43;1654849;85;21033;-79
2022/09/04 01:12:39;;;;;;;5.97;2.58;;;;;;;16.34;89.72;99497.24;1654987;85;21625;-79
2022/09/04 01:15:26;;;;;;;7.83;2.67;;;;;;;16.30;89.70;99502.61;1655148;87;21041;-79
2022/09/04 01:18:05;;;;;;;4.37;2.12;;;;;;;16.26;89.10;99496.25;1638053;87;21073;-79
2022/09/04 01:20:46;;;;;;;4.30;1.85;;;;;;;16.21;89.69;99499.05;1654687;85;21037;-79
2022/09/04 01:23:42;;;;;;;4.33;2.42;;;;;;;16.19;89.95;99489.08;1654608;87;21076;-78
2022/09/04 01:26:32;;;;;;;3.95;2.35;;;;;;;16.17;89.31;99494.00;1655029;86;21108;-79
2022/09/04 01:29:34;;;;;;;3.62;2.12;;;;;;;16.12;89.91;99495.98;1654655;85;21109;-78
2022/09/04 01:32:22;;;;;;;4.17;2.20;;;;;;;16.10;90.34;99490.33;1625964;88;21081;-78
2022/09/04 01:35:25;;;;;;;4.35;2.05;;;;;;;16.08;90.17;99492.16;1626413;88;21036;-78
2022/09/04 01:38:12;;;;;;;3.20;2.02;;;;;;;16.09;90.57;99498.25;1627125;87;21029;-78
2022/09/04 01:41:06;;;;;;;3.45;2.15;;;;;;;16.07;89.56;99497.46;1654752;85;21037;-78
2022/09/04 01:43:33;;;;;;;4.45;2.20;;;;;;;16.05;89.84;99493.58;1664239;86;21184;-78
2022/09/04 01:46:35;;;;;;;4.97;2.05;;;;;;;16.02;90.11;99487.17;1664488;85;20997;-78
2022/09/04 01:49:20;;;;;;;6.15;2.20;;;;;;;16.00;89.72;99487.69;1664533;85;21044;-78
2022/09/04 01:52:06;;;;;;;3.27;2.10;;;;;;;16.00;89.71;99485.06;1664330;86;21048;-78
2022/09/04 01:54:57;;;;;;;6.47;2.12;;;;;;;16.00;89.87;99491.63;1662897;86;21577;-78
2022/09/04 01:57:47;;;;;;;7.62;2.52;;;;;;;15.96;90.12;99488.73;1664121;86;21096;-78
2022/09/04 02:00:18;;;;;;;4.00;2.30;;;;;;;15.98;90.60;99500.02;1650249;86;21041;-79
2022/09/04 02:03:16;;;;;;;5.70;2.20;;;;;;;16.02;90.17;99503.38;1664568;85;21020;-78
2022/09/04 02:06:14;;;;;;;6.78;2.30;;;;;;;16.00;90.16;99498.18;1664703;85;21081;-78
2022/09/04 02:09:11;;;;;;;5.45;2.37;;;;;;;16.01;90.05;99500.34;1647139;86;21002;-78
2022/09/04 02:11:47;;;;;;;5.80;2.52;;;;;;;15.97;89.89;99494.83;1628826;85;21081;-78
2022/09/04 02:14:34;;;;;;;6.97;2.27;;;;;;;15.96;90.80;99493.98;1663731;85;21037;-78
2022/09/04 02:17:07;;;;;;;5.67;2.00;;;;;;;15.96;90.55;99488.73;1643145;86;21528;-79
2022/09/04 02:19:57;;;;;;;6.70;2.20;;;;;;;15.96;90.24;99497.06;1664561;86;21041;-78
2022/09/04 02:22:29;;;;;;;7.87;2.05;;;;;;;15.93;90.63;99492.78;1645683;86;21049;-79
2022/09/04 02:25:34;;;;;;;5.65;2.30;;;;;;;15.95;90.47;99492.26;1664776;85;21008;-78
2022/09/04 02:28:12;;;;;;;;;;;;;;;15.99;91.00;99491.22;1666988;85;21052;-79
2022/09/04 02:30:50;;;;;;;7.78;2.20;;;;;;;16.03;91.07;99483.61;1664506;86;20149;-79
2022/09/04 02:33:34;;;;;;;3.67;2.22;;;;;;;16.08;90.97;99486.06;1663752;86;21580;-78
2022/09/04 02:36:15;;;;;;;4.20;2.15;;;;;;;16.10;91.01;99491.64;1647475;86;21056;-80
2022/09/04 02:38:47;;;;;;;4.70;2.30;;;;;;;16.13;90.59;99492.42;1666498;85;21041;-79
2022/09/04 02:41:34;;;;;;;3.55;1.87;;;;;;;16.15;90.26;99487.97;1665948;85;20997;-80
2022/09/04 02:44:27;;;;;;;3.58;1.90;;;;;;;16.13;90.38;99492.42;1662851;86;21104;-80
2022/09/04 02:47:27;;;;;;;3.67;2.22;;;;;;;16.11;90.42;99481.98;1665036;85;22228;-79
2022/09/04 02:50:30;;;;;;;6.05;2.20;;;;;;;16.09;90.23;99481.20;1664640;85;21063;-80
2022/09/04 02:53:36;;;;;;;2.87;1.98;;;;;;;16.05;91.35;99484.41;1664868;86;21044;-79
2022/09/04 02:56:35;;;;;;;6.67;2.10;;;;;;;16.03;90.44;99482.30;1631735;86;21011;-78
2022/09/04 02:59:46;;;;;;;5.35;2.27;;;;;;;16.02;90.51;99481.08;1649578;86;21548;-78
2022/09/04 03:02:27;;;;;;;4.08;2.17;;;;;;;16.05;91.36;99473.06;1664132;85;21061;-79
2022/09/04 03:05:20;;;;;;;7.92;2.12;;;;;;;16.14;91.88;99477.09;1663362;86;21072;-80
2022/09/04 03:08:01;;;;;;;5.12;2.00;;;;;;;16.20;91.47;99478.99;1662498;86;21588;-79
2022/09/04 03:10:41;;;;;;;4.03;2.10;;;;;;;16.20;91.04;99477.69;1663268;86;21013;-79
2022/09/04 03:13:31;;;;;;;6.47;2.27;;;;;;;16.21;90.93;99481.99;1664167;86;21076;-81
2022/09/04 03:16:19;;;;;;;4.42;2.05;;;;;;;16.25;91.11;99478.79;1652492;86;21093;-79
2022/09/04 03:19:10;;;;;;;4.10;2.00;;;;;;;16.29;90.75;99472.49;1663292;85;21051;-79
2022/09/04 03:22:00;;;;;;;3.70;2.17;;;;;;;16.27;90.65;99471.27;1664592;86;21061;-79
2022/09/04 03:25:02;;;;;;;4.75;2.12;;;;;;;16.33;90.84;99473.22;1664759;85;21548;-79
2022/09/04 03:27:32;;;;;;;6.80;2.25;;;;;;;16.32;90.68;99478.94;1663903;86;21755;-79
2022/09/04 03:30:09;;;;;;;3.70;2.10;;;;;;;16.35;90.83;99482.72;1663925;86;21089;-81
2022/09/04 03:33:11;;;;;;;4.25;2.05;;;;;;;16.39;91.07;99485.61;1664492;86;21033;-80
2022/09/04 03:35:43;;;;;;;8.03;2.10;;;;;;;16.43;91.02;99478.03;1664425;86;21544;-79
2022/09/04 03:38:24;;;;;;;8.85;2.47;;;;;;;16.46;90.71;99483.59;1666567;85;21073;-80
2022/09/04 03:41:14;;;;;;;6.60;2.22;;;;;;;16.45;90.60;99491.94;1666763;85;21077;-80
2022/09/04 03:44:17;;;;;;;5.60;2.33;;;;;;;16.46;90.50;99491.00;1632402;85;21199;-79
2022/09/04 03:47:13;;;;;;;5.58;2.02;;;;;;;16.48;90.45;99493.09;1619085;89;21056;-79
2022/09/04 03:50:06;;;;;;;10.60;2.25;;;;;;;16.53;90.61;99494.67;1597891;89;21550;-79
2022/09/04 03:52:47;;;;;;;7.03;2.10;;;;;;;16.57;90.48;99496.23;1615827;89;21080;-79
2022/09/04 03:55:32;;;;;;;5.92;2.17;;;;;;;16.56;90.09;99506.36;1613209;89;21028;-80
2022/09/04 03:58:31;;;;;;;4.58;2.20;;;;;;;16.53;90.21;99506.48;1579960;90;21567;-79
2022/09/04 04:01:12;;;;;;;3.15;1.80;;;;;;;16.49;90.11;99505.75;1580314;90;21043;-78
2022/09/04 04:04:20;;;;;;;7.28;2.05;;;;;;;16.51;90.47;99510.48;1580380;88;21000;-79
2022/09/04 04:07:34;;;;;;;4.53;2.40;;;;;;;16.53;90.63;99513.04;1619051;89;21012;-79
2022/09/04 04:10:12;;;;;;;3.20;1.90;;;;;;;16.55;90.54;99512.52;1616717;89;21088;-80
2022/09/04 04:12:55;;;;;;;4.17;2.12;;;;;;;16.53;90.44;99512.57;1618569;89;21024;-79
2022/09/04 04:15:44;;;;;;;5.58;1.95;;;;;;;16.52;90.10;99521.37;1619051;88;21015;-80
2022/09/04 04:18:29;;;;;;;5.55;2.40;;;;;;;16.54;90.71;99522.63;1618662;89;22037;-80
2022/09/04 04:21:04;;;;;;;5.42;2.25;;;;;;;16.55;90.61;99525.17;1618822;89;21047;-79
2022/09/04 04:23:49;;;;;;;5.95;2.00;;;;;;;16.57;90.84;99525.11;1618893;89;21055;-79
2022/09/04 04:26:39;;;;;;;4.55;2.33;;;;;;;16.62;91.08;99532.34;1618833;89;21064;-80
2022/09/04 04:29:17;;;;;;;3.37;2.00;;;;;;;16.69;91.50;99532.45;1618945;89;21555;-79
2022/09/04 04:32:16;;;;;;;7.42;2.65;;;;;;;16.75;90.95;99530.91;1640275;87;21544;-79
2022/09/04 04:35:10;;;;;;;7.00;1.95;;;;;;;16.76;90.73;99534.38;1618936;87;21084;-79
2022/09/04 04:37:54;;;;;;;7.22;2.30;;;;;;;16.76;91.00;99542.25;1618841;88;21092;-79
2022/09/04 04:40:35;;;;;;;4.58;2.00;;;;;;;16.77;90.61;99542.19;1604081;89;22380;-78
2022/09/04 04:43:11;;;;;;;5.78;2.30;;;;;;;16.77;90.71;99546.13;1618022;86;21108;-79
2022/09/04 04:45:49;;;;;;;3.95;2.02;;;;;;;16.79;90.98;99553.48;1580115;91;21012;-79
2022/09/04 04:48:24;;;;;;;2.87;1.80;;;;;;;16.81;90.31;99556.02;1618772;89;21020;-79
2022/09/04 04:51:31;;;;;;;7.47;2.30;;;;;;;16.77;90.25;99554.44;1610790;87;21071;-78
2022/09/04 04:54:28;;;;;;;6.20;2.15;;;;;;;16.75;90.57;99560.22;1614648;89;21029;-80
2022/09/04 04:57:25;;;;;;;9.80;2.30;;;;;;;16.78;90.73;99560.10;1618248;88;22289;-79
2022/09/04 05:00:18;;;;;;;3.50;2.22;;;;;;;16.80;90.99;99555.64;1618419;88;21516;-79
2022/09/04 05:03:07;;;;;;;4.37;2.25;;;;;;;16.85;90.80;99562.44;1618536;88;21104;-80
2022/09/04 05:06:16;;;;;;;8.58;2.10;;;;;;;16.87;90.44;99563.66;1580072;88;21063;-80
2022/09/04 05:09:07;;;;;;;4.30;2.40;;;;;;;16.91;90.79;99562.63;1599174;89;21061;-79
2022/09/04 05:12:01;;;;;;;6.15;2.17;;;;;;;17.00;90.87;99565.30;1614960;89;21061;-78
2022/09/04 05:15:02;;;;;;;4.65;2.33;;;;;;;17.07;90.67;99563.66;1612905;89;21516;-79
2022/09/04 05:17:36;;;;;;;7.10;2.10;;;;;;;17.14;90.93;99564.22;1618604;88;21005;-81
2022/09/04 05:20:29;;;;;;;7.65;2.47;;;;;;;17.25;90.78;99569.02;1611219;87;21536;-79
2022/09/04 05:23:24;;;;;;;4.70;2.40;;;;;;;17.32;90.64;99573.05;1596386;89;21028;-79
2022/09/04 05:26:02;;;;;;;6.90;2.75;;;;;;;17.38;90.40;99579.34;1618456;89;21525;-79
2022/09/04 05:28:51;;;;;;;5.08;3.08;;;;;;;17.41;89.92;99581.84;1618486;89;21088;-79
2022/09/04 05:31:54;;;;;;;5.28;3.05;;;;;;;17.38;89.51;99585.06;1582465;90;20957;-80
2022/09/04 05:34:32;;;;;;;6.17;2.87;;;;;;;17.28;89.29;99588.09;1559514;89;21032;-80
2022/09/04 05:37:10;;;;;;;5.28;3.30;;;;;;;17.24;89.65;99590.47;1621286;89;20993;-81
2022/09/04 05:40:16;;;;;;;7.67;3.25;;;;;;;17.25;89.57;99596.14;1622110;86;21272;-79
2022/09/04 05:43:13;;;;;;;6.10;3.20;;;;;;;17.24;89.68;99602.77;1618469;85;21135;-80
2022/09/04 05:46:06;;;;;;;6.72;3.00;;;;;;;17.21;89.47;99597.63;1618819;89;21560;-79
2022/09/04 05:49:07;;;;;;;5.05;3.30;;;;;;;17.20;89.36;99599.41;1619086;88;21040;-78
2022/09/04 05:51:48;;;;;;;6.45;3.02;;;;;;;17.21;89.06;99599.83;1618463;89;21066;-79
2022/09/04 05:54:29;;;;;;;12.70;3.87;;;;;;;17.19;89.74;99600.36;1616271;89;21104;-79
2022/09/04 05:57:13;;;;;;;6.90;3.70;;;;;;;17.21;89.93;99597.20;1617153;89;21080;-79
2022/09/04 05:59:50;;;;;;;7.47;3.90;;;;;;;17.23;89.09;99603.23;1618132;88;21131;-79
2022/09/04 06:02:34;;;;;;;7.97;3.70;;;;;;;17.26;89.15;99601.77;1618154;89;21555;-79
2022/09/04 06:05:52;;;;;;;6.65;3.80;;;;;;;17.26;89.16;99601.77;1618933;89;21032;-79
2022/09/04 06:08:39;;;;;;;6.60;3.50;;;;;;;17.33;90.21;99605.00;1601022;89;21072;-79
2022/09/04 06:11:40;;;;;;;5.37;3.08;;;;;;;17.45;90.08;99597.02;1619065;89;21068;-78
2022/09/04 06:14:39;;;;;;;6.17;3.22;;;;;;;17.51;89.71;99600.69;1616489;87;21063;-78
2022/09/04 06:17:41;;;;;;;6.33;2.58;;;;;;;17.57;89.59;99599.09;1618574;89;21054;-78
2022/09/04 06:20:30;;;;;;;3.62;2.35;;;;;;;17.71;89.53;99595.82;1611276;89;21041;-79
2022/09/04 06:23:33;;;;;;;7.62;2.30;;;;;;;17.75;89.13;99601.33;1579285;90;21051;-80
2022/09/04 06:26:28;;;;;;;5.33;2.45;;;;;;;17.91;89.32;99597.55;1565137;91;21586;-79
2022/09/04 06:29:15;;;;;;;4.30;2.55;;;;;;;18.07;88.78;99599.83;1617844;89;21623;-79
2022/09/04 06:32:08;;;;;;;3.87;2.10;;;;;;;18.17;88.35;99603.34;1618984;89;21044;-79
2022/09/04 06:35:08;;;;;;;3.17;2.30;;;;;;;18.32;88.33;99603.05;1619590;87;21087;-79
2022/09/04 06:38:13;;;;;;;5.90;2.60;;;;;;;18.41;86.72;99602.14;1574279;90;21390;-78
2022/09/04 06:40:48;;;;;;;4.53;2.52;;;;;;;18.53;86.38;99606.42;1581197;90;21034;-78
2022/09/04 06:43:36;;;;;;;5.92;2.72;;;;;;;18.59;85.49;99607.42;1560211;88;23393;-79
2022/09/04 06:46:25;;;;;;;4.28;2.50;;;;;;;18.65;85.46;99601.85;1658879;85;21072;-78
2022/09/04 06:49:16;;;;;;;3.75;2.17;;;;;;;18.65;84.05;99600.53;1655108;87;21065;-79
2022/09/04 06:52:13;;;;;;;5.90;2.42;;;;;;;18.72;84.58;99601.94;1654174;85;21085;-80
2022/09/04 06:54:56;;;;;;;3.40;2.30;;;;;;;18.83;84.21;99610.16;1654445;87;21040;-79
2022/09/04 06:57:55;;;;;;;5.35;2.05;;;;;;;18.92;84.45;99606.66;1655072;85;21024;-79
2022/09/04 07:00:21;;;;;;;7.67;2.22;;;;;;;18.95;83.69;99610.00;1655112;86;21061;-79
2022/09/04 07:03:17;;;;;;;6.90;2.30;;;;;;;19.06;83.72;99612.95;1655065;86;21045;-79
2022/09/04 07:06:16;;;;;;;8.10;2.98;;;;;;;19.19;83.42;99613.14;1654161;87;21529;-79
2022/09/04 07:08:48;;;;;;;3.98;2.15;;;;;;;19.35;82.62;99610.55;1655114;85;21048;-78
2022/09/04 07:11:41;;;;;;;4.35;1.75;;;;;;;19.52;82.98;99610.11;1653576;85;21058;-79
2022/09/04 07:14:48;;;;;;;5.87;2.50;;;;;;;19.61;81.52;99611.78;1638205;87;21053;-79
2022/09/04 07:17:35;;;;;;;3.95;2.10;;;;;;;19.70;81.88;99605.66;1654843;85;21608;-78
2022/09/04 07:20:33;;;;;;;2.33;1.72;;;;;;;19.71;80.95;99614.81;1622248;88;21091;-79
2022/09/04 07:23:23;;;;;;;5.40;1.80;;;;;;;19.83;80.43;99610.65;1653562;87;20994;-79
2022/09/04 07:26:04;;;;;;;2.60;1.70;;;;;;;20.01;81.53;99606.98;1655049;86;21033;-79
2022/09/04 07:29:21;;;;;;;3.15;1.90;;;;;;;20.00;78.63;99609.25;1633194;87;21045;-79
2022/09/04 07:31:59;;;;;;;3.83;1.90;;;;;;;20.04;78.49;99613.42;1672407;85;20987;-79
2022/09/04 07:34:52;;;;;;;3.30;1.80;;;;;;;19.84;77.25;99616.33;1664576;85;21038;-79
2022/09/04 07:37:45;;;;;;;3.25;2.10;;;;;;;19.75;77.63;99612.39;1659240;85;21092;-78
2022/09/04 07:40:32;;;;;;;3.72;1.67;;;;;;;19.70;77.45;99618.84;1654580;85;21045;-78
2022/09/04 07:43:22;;;;;;;2.60;1.70;;;;;;;19.61;77.31;99617.06;1655026;85;21163;-78
2022/09/04 07:46:04;;;;;;;3.92;1.70;;;;;;;19.55;76.46;99613.91;1654908;87;21057;-78
2022/09/04 07:48:54;;;;;;;2.70;1.75;;;;;;;19.53;77.19;99619.27;1654159;85;21014;-78
2022/09/04 07:51:29;;;;;;;4.95;2.08;;;;;;;19.53;76.81;99618.42;1654938;87;21041;-79
2022/09/04 07:54:10;;;;;;;2.80;1.52;;;;;;;19.55;76.81;99621.83;1654072;85;21013;-80
2022/09/04 07:56:53;;;;;;;3.02;1.57;;;;;;;19.62;77.15;99618.78;1638101;87;21030;-79
2022/09/04 07:59:43;;;;;;;3.05;1.87;;;;;;;19.70;75.84;99621.48;1655079;85;21044;-79
2022/09/04 08:02:39;;;;;;;3.50;1.82;;;;;;;19.72;77.36;99620.48;1654861;87;21042;-79
2022/09/04 08:05:26;;;;;;;3.20;1.70;;;;;;;19.87;77.63;99616.14;1657181;87;20990;-80
2022/09/04 08:08:09;;;;;;;2.47;1.60;;;;;;;20.02;75.39;99623.69;1656611;87;21120;-80
2022/09/04 08:11:16;;;;;;;2.60;1.50;;;;;;;20.10;76.76;99625.42;1656486;86;21037;-80
2022/09/04 08:13:52;;;;;;;2.55;1.67;;;;;;;20.20;73.72;99627.09;1653456;85;21041;-79
2022/09/04 08:16:27;;;;;;;2.33;1.55;;;;;;;20.33;76.11;99617.51;1655647;85;21069;-79
2022/09/04 08:19:34;;;;;;;2.80;1.60;;;;;;;20.47;76.00;99616.72;1653581;86;21014;-78
2022/09/04 08:22:04;;;;;;;3.80;1.60;;;;;;;20.59;75.15;99623.12;1676179;85;21658;-80
2022/09/04 08:24:45;;;;;;;2.72;1.60;;;;;;;20.66;73.51;99615.23;1634236;87;21062;-81
2022/09/04 08:27:50;;;;;;;2.42;1.62;;;;;;;20.74;74.33;99606.38;1654933;87;21045;-80
2022/09/04 08:30:20;;;;;;;2.30;1.35;;;;;;;20.92;74.19;99606.23;1655600;86;21097;-79
2022/09/04 08:33:15;;;;;;;3.70;2.10;;;;;;;21.12;74.05;99607.20;1655384;87;21076;-79
2022/09/04 08:36:11;;;;;;;2.37;1.42;;;;;;;21.25;73.06;99608.16;1654352;85;21021;-79
2022/09/04 08:39:01;;;;;;;1.87;1.20;;;;;;;21.37;73.00;99607.04;1674091;85;21049;-79
2022/09/04 08:42:05;;;;;;;3.17;1.30;;;;;;;21.51;72.40;99607.55;1667732;85;21012;-80
2022/09/04 08:45:03;;;;;;;1.87;1.30;;;;;;;21.64;71.67;99609.30;1634859;87;21065;-79
2022/09/04 08:48:10;;;;;;;3.50;1.20;;;;;;;21.71;71.31;99604.48;1644762;85;21570;-80
2022/09/04 08:51:02;;;;;;;2.20;1.50;;;;;;;21.70;69.21;99611.19;1658283;85;21063;-80
2022/09/04 08:54:01;;;;;;;1.90;1.32;;;;;;;21.68;68.35;99607.80;1625720;87;21057;-80
2022/09/04 08:56:52;;;;;;;2.17;1.42;;;;;;;21.69;69.64;99610.34;1606920;86;21537;-79
2022/09/04 08:59:41;;;;;;;1.80;1.30;;;;;;;21.74;70.26;99611.38;1650593;85;21076;-78
2022/09/04 09:02:16;;;;;;;2.10;1.30;;;;;;;21.75;69.09;99608.64;1649237;86;21069;-79
2022/09/04 09:04:54;;;;;;;2.98;1.25;;;;;;;21.81;69.41;99608.73;1650137;85;21045;-79
2022/09/04 09:07:43;;;;;;;2.05;1.30;;;;;;;21.88;69.92;99604.73;1652074;85;21604;-79
2022/09/04 09:11:04;;;;;;;1.80;1.22;;;;;;;21.93;68.63;99597.84;1632439;86;21085;-78
2022/09/04 09:14:05;;;;;;;3.60;1.35;;;;;;;21.99;68.72;99610.67;1614086;87;21096;-79
2022/09/04 09:17:11;;;;;;;2.20;1.40;;;;;;;22.15;68.56;99614.50;1650245;87;21546;-79
2022/09/04 09:20:03;;;;;;;2.30;1.40;;;;;;;22.17;66.71;99616.58;1622965;88;21553;-79
2022/09/04 09:23:12;;;;;;;5.25;1.30;;;;;;;22.11;65.93;99620.95;1626219;86;21034;-80
2022/09/04 09:26:12;;;;;;;1.52;1.17;;;;;;;22.07;65.55;99616.32;1650145;85;21034;-80
2022/09/04 09:29:04;;;;;;;2.15;1.40;;;;;;;22.00;65.46;99618.98;1613957;87;21615;-81
2022/09/04 09:32:09;;;;;;;1.77;1.07;;;;;;;21.91;66.09;99621.75;1650346;85;21549;-79
2022/09/04 09:35:21;;;;;;;1.80;1.30;;;;;;;21.82;66.46;99619.67;1650208;87;21049;-78
2022/09/04 09:38:00;;;;;;;6.22;1.40;;;;;;;21.78;66.39;99620.34;1613750;87;21088;-78
2022/09/04 09:40:50;;;;;;;2.35;1.30;;;;;;;21.74;66.43;99613.54;1614975;87;21032;-78
2022/09/04 09:43:55;;;;;;;3.17;1.17;;;;;;;21.69;65.78;99617.45;1650131;85;21168;-78
2022/09/04 09:46:49;;;;;;;1.52;1.02;;;;;;;21.57;65.95;99618.58;1650176;86;21085;-79
2022/09/04 09:49:56;;;;;;;2.47;1.45;;;;;;;21.60;65.75;99613.08;1650121;85;21474;-79
2022/09/04 09:52:46;;;;;;;2.17;1.20;;;;;;;21.71;65.95;99615.08;1649965;87;21055;-78
2022/09/04 09:55:33;;;;;;;2.35;1.47;;;;;;;21.89;63.44;99616.19;1650185;85;21069;-79
2022/09/04 09:58:27;;;;;;;4.15;1.45;;;;;;;21.95;64.36;99605.20;1636940;86;21014;-79
2022/09/04 10:01:20;;;;;;;1.47;1.20;;;;;;;22.01;63.26;99603.48;1649878;85;21065;-77
2022/09/04 10:04:27;;;;;;;1.32;1.05;;;;;;;22.05;61.05;99598.36;1650331;85;21644;-77
2022/09/04 10:07:43;;;;;;;2.55;1.22;;;;;;;22.18;62.89;99586.48;1649693;87;21601;-78
2022/09/04 10:10:33;;;;;;;1.47;1.10;;;;;;;22.22;61.66;99589.30;1649770;87;21053;-77
2022/09/04 10:13:27;;;;;;;2.00;1.20;;;;;;;22.28;61.88;99588.94;1651795;85;21490;-78
2022/09/04 10:16:19;;;;;;;3.72;1.20;;;;;;;22.39;61.08;99591.73;1634985;87;21061;-78
2022/09/04 10:19:03;;;;;;;2.42;1.60;;;;;;;22.48;61.80;99595.56;1650168;87;21029;-77
2022/09/04 10:22:07;;;;;;;1.60;1.20;;;;;;;22.58;60.29;99590.05;1630659;87;21062;-79
2022/09/04 10:25:05;;;;;;;3.92;1.77;;;;;;;22.70;60.54;99580.42;1627171;85;21147;-78
2022/09/04 10:27:49;;;;;;;1.72;1.15;;;;;;;22.83;56.13;99581.75;1631981;85;21037;-78
2022/09/04 10:30:23;;;;;;;2.33;1.22;;;;;;;22.86;53.80;99587.31;1651118;85;21049;-78
2022/09/04 10:33:10;;;;;;;1.45;1.20;;;;;;;22.91;57.56;99583.40;1650509;87;21081;-79
2022/09/04 10:35:57;;;;;;;1.85;1.00;;;;;;;23.05;58.82;99583.81;1650237;87;21029;-78
2022/09/04 10:42:10;;;;;;;1.85;1.00;;;;;;;23.28;58.86;99572.94;1650604;87;21077;-78
2022/09/04 10:44:48;;;;;;;1.57;1.02;;;;;;;23.37;57.12;99558.16;1644550;86;21076;-78
2022/09/04 10:47:32;;;;;;;1.15;1.00;;;;;;;23.52;57.80;99574.33;1598277;89;21009;-78
2022/09/04 10:50:22;;;;;;;1.30;0.98;;;;;;;23.63;57.96;99565.59;1621643;85;20989;-78
2022/09/04 10:53:06;;;;;;;1.47;0.98;;;;;;;23.59;54.44;99571.59;1622273;85;21067;-80
2022/09/04 10:55:46;;;;;;;1.17;0.90;;;;;;;23.59;56.13;99565.44;1619534;85;21060;-78
2022/09/04 10:59:00;;;;;;;1.15;0.90;;;;;;;23.68;55.21;99566.60;1617772;89;21145;-78
2022/09/04 11:01:54;;;;;;;3.33;0.98;;;;;;;23.71;54.39;99563.22;1618865;88;21552;-79
2022/09/04 11:05:07;;;;;;;1.30;1.00;;;;;;;23.95;54.13;99567.75;1618068;89;21084;-79
2022/09/04 11:07:51;;;;;;;1.98;1.00;;;;;;;24.15;55.70;99559.64;1618977;88;21099;-77
2022/09/04 11:10:58;;;;;;;1.12;0.80;;;;;;;24.30;52.49;99565.64;1627327;86;21064;-78
2022/09/04 11:13:44;;;;;;;1.00;0.90;;;;;;;24.42;51.25;99567.37;1616915;89;21028;-79
2022/09/04 11:16:48;;;;;;;1.22;0.95;;;;;;;24.54;52.07;99570.95;1621194;87;21463;-77
2022/09/04 11:19:35;;;;;;;1.20;0.90;;;;;;;24.69;53.13;99572.91;1619485;88;21036;-78
2022/09/04 11:22:45;;;;;;;1.05;0.75;;;;;;;24.80;49.22;99573.78;1619509;89;21036;-77
2022/09/04 11:25:46;;;;;;;1.42;0.95;;;;;;;24.95;51.12;99566.45;1595065;90;21048;-77
2022/09/04 11:29:00;;;;;;;1.98;0.80;;;;;;;25.24;48.34;99567.83;1616613;89;21015;-78
2022/09/04 11:31:47;;;;;;;3.45;0.88;;;;;;;25.33;48.15;99563.12;1619023;89;21132;-79
2022/09/04 11:34:41;;;;;;;3.85;0.95;;;;;;;25.50;47.28;99565.27;1614836;87;21081;-79
2022/09/04 11:37:36;;;;;;;1.55;1.00;;;;;;;25.64;45.54;99562.00;1606201;88;21013;-78
2022/09/04 11:40:34;;;;;;;3.70;0.90;;;;;;;25.78;47.00;99559.06;1621994;86;21056;-79
2022/09/04 11:43:22;;;;;;;1.30;0.90;;;;;;;25.82;48.05;99559.66;1611110;87;21120;-78
2022/09/04 11:46:18;;;;;;;2.02;1.20;;;;;;;26.07;46.80;99562.05;1631081;85;21096;-79
2022/09/04 11:49:12;;;;;;;0.80;0.78;;;;;;;26.04;44.65;99544.13;1644060;85;21062;-79
2022/09/04 11:52:03;;;;;;;1.27;0.98;;;;;;;26.18;46.23;99551.36;1629696;85;21855;-79
2022/09/04 11:55:19;;;;;;;1.67;1.00;;;;;;;26.23;43.12;99553.63;1642515;85;21687;-79
2022/09/04 11:58:23;;;;;;;1.32;0.90;;;;;;;26.43;45.07;99542.64;1643578;85;21041;-79
2022/09/04 12:01:02;;;;;;;1.75;1.15;;;;;;;26.76;43.96;99538.97;1642431;85;21060;-78
2022/09/04 12:04:22;;;;;;;1.25;0.93;;;;;;;27.07;44.00;99538.14;1602694;87;21065;-77
2022/09/04 12:07:20;;;;;;;1.72;1.00;;;;;;;27.22;41.66;99533.27;1644562;85;21112;-80
2022/09/04 12:10:31;;;;;;;1.62;0.88;;;;;;;27.75;43.48;99538.39;1645006;85;21101;-78
2022/09/04 12:13:26;;;;;;;1.57;0.80;;;;;;;28.20;38.58;99539.24;1601344;88;21577;-80
2022/09/04 12:16:09;;;;;;;0.90;0.90;;;;;;;28.50;38.90;99537.39;1641581;85;21071;-80
2022/09/04 12:18:53;;;;;;;1.75;1.02;;;;;;;29.00;40.45;99535.83;1649397;85;21044;-79
2022/09/04 12:22:03;;;;;;;1.32;0.90;;;;;;;29.36;39.74;99535.98;1643221;85;21024;-79
2022/09/04 12:24:44;;;;;;;1.05;0.82;;;;;;;29.58;39.13;99524.02;1650401;85;21030;-81
2022/09/04 12:27:39;;;;;;;1.22;0.90;;;;;;;30.02;37.69;99523.34;1640579;84;21156;-80
2022/09/04 12:30:22;;;;;;;4.10;0.90;;;;;;;30.57;38.03;99514.28;1645779;87;21081;-81
2022/09/04 12:33:28;;;;;;;1.17;0.85;;;;;;;31.19;37.02;99510.12;1634362;87;21093;-81
2022/09/04 12:36:32;;;;;;;0.80;0.80;;;;;;;31.91;36.95;99510.52;1636551;85;21215;-81
2022/09/04 12:39:19;;;;;;;1.17;0.78;;;;;;;32.79;36.28;99513.06;1680826;84;21025;-81
2022/09/04 12:42:09;;;;;;;2.47;0.85;;;;;;;33.21;37.51;99514.67;1649278;86;21064;-81
2022/09/04 12:44:50;;;;;;;1.00;0.90;;;;;;;33.56;31.20;99512.47;1650371;85;21555;-82
2022/09/04 12:47:31;;;;;;;2.98;1.00;;;;;;;33.90;35.12;99501.84;1646218;85;21080;-82
2022/09/04 12:50:21;;;;;;;1.15;0.80;;;;;;;34.22;32.72;99506.16;1655158;85;21100;-83
2022/09/04 12:53:23;;;;;;;1.07;0.80;;;;;;;34.13;31.58;99493.23;1670994;85;21102;-83
2022/09/04 12:56:14;;;;;;;1.02;0.80;;;;;;;34.11;28.97;99510.11;1650604;86;21062;-82
2022/09/04 12:59:06;;;;;;;1.07;0.88;;;;;;;34.31;30.03;99506.95;1664811;85;21022;-81
2022/09/04 13:01:52;;;;;;;1.65;0.85;;;;;;;34.20;30.92;99509.06;1677610;85;21097;-81
2022/09/04 13:04:48;;;;;;;0.70;0.70;;;;;;;34.45;29.80;99511.54;1663216;85;21526;-81
2022/09/04 13:07:32;;;;;;;1.20;0.80;;;;;;;34.07;31.37;99498.84;1666142;85;21590;-81
2022/09/04 13:10:27;;;;;;;1.32;0.82;;;;;;;34.32;30.56;99501.38;1665004;85;21661;-81
2022/09/04 13:13:11;;;;;;;1.80;0.78;;;;;;;34.34;30.37;99490.37;1666168;85;21014;-82
2022/09/04 13:15:56;;;;;;;2.37;1.00;;;;;;;34.24;29.85;99485.23;1665778;85;21037;-82
2022/09/04 13:18:42;;;;;;;2.02;0.95;;;;;;;34.69;30.26;99484.00;1666035;85;20990;-81
2022/09/04 13:21:29;;;;;;;0.85;0.75;;;;;;;34.80;27.46;99477.63;1665472;86;21060;-84
2022/09/04 13:24:34;;;;;;;0.85;0.80;;;;;;;34.86;28.94;99478.75;1651328;85;21030;-83
2022/09/04 13:27:06;;;;;;;2.85;0.75;;;;;;;34.87;28.06;99480.41;1665959;85;21021;-82